sensor_id;sensor_type;location;lat;lon;timestamp;temperature;humidity
20370;DHT22;10344;47.592;9.600;2022-12-29T00:02:16;5.60;99.90
20370;DHT22;10344;47.592;9.600;2022-12-29T00:04:42;5.70;99.90
20370;DHT22;10344;47.592;9.600;2022-12-29T00:07:08;5.80;99.90
20370;DHT22;10344;47.592;9.600;2022-12-29T00:09:37;5.60;99.90
20370;DHT22;10344;47.592;9.600;2022-12-29T00:12:04;5.40;99.90
20370;DHT22;10344;47.592;9.600;2022-12-29T00:14:29;5.20;99.90
20370;DHT22;10344;47.592;9.600;2022-12-29T00:17:14;5.00;99.90
20370;DHT22;10344;47.592;9.600;2022-12-29T00:19:42;5.10;99.90
20370;DHT22;10344;47.592;9.600;2022-12-29T00:22:26;5.20;99.90
20370;DHT22;10344;47.592;9.600;2022-12-29T00:25:11;5.20;99.90
20370;DHT22;10344;47.592;9.600;2022-12-29T00:27:56;5.20;99.90
20370;DHT22;10344;47.592;9.600;2022-12-29T00:30:41;5.20;99.90
20370;DHT22;10344;47.592;9.600;2022-12-29T00:33:28;5.20;99.90
20370;DHT22;10344;47.592;9.600;2022-12-29T00:38:54;5.30;99.90
20370;DHT22;10344;47.592;9.600;2022-12-29T00:41:39;5.20;99.90
20370;DHT22;10344;47.592;9.600;2022-12-29T00:44:25;5.20;99.90
20370;DHT22;10344;47.592;9.600;2022-12-29T00:46:52;5.20;99.90
20370;DHT22;10344;47.592;9.600;2022-12-29T00:49:20;5.20;99.90
20370;DHT22;10344;47.592;9.600;2022-12-29T00:54:28;5.60;99.90
20370;DHT22;10344;47.592;9.600;2022-12-29T00:56:54;5.70;99.90
20370;DHT22;10344;47.592;9.600;2022-12-29T00:59:19;5.80;99.90
20370;DHT22;10344;47.592;9.600;2022-12-29T01:01:52;5.90;99.90
20370;DHT22;10344;47.592;9.600;2022-12-29T01:04:21;5.90;99.90
20370;DHT22;10344;47.592;9.600;2022-12-29T01:06:48;5.90;99.90
20370;DHT22;10344;47.592;9.600;2022-12-29T01:09:15;6.00;99.90
20370;DHT22;10344;47.592;9.600;2022-12-29T01:12:00;5.90;99.90
20370;DHT22;10344;47.592;9.600;2022-12-29T01:14:26;5.90;99.90
20370;DHT22;10344;47.592;9.600;2022-12-29T01:16:52;6.00;99.90
20370;DHT22;10344;47.592;9.600;2022-12-29T01:19:19;6.20;99.90
20370;DHT22;10344;47.592;9.600;2022-12-29T01:21:46;6.60;99.90
20370;DHT22;10344;47.592;9.600;2022-12-29T01:24:12;6.80;99.90
20370;DHT22;10344;47.592;9.600;2022-12-29T01:26:43;6.80;99.90
20370;DHT22;10344;47.592;9.600;2022-12-29T01:29:09;6.70;99.90
20370;DHT22;10344;47.592;9.600;2022-12-29T01:31:39;6.70;99.90
20370;DHT22;10344;47.592;9.600;2022-12-29T01:34:09;6.80;99.90
20370;DHT22;10344;47.592;9.600;2022-12-29T01:36:38;6.80;99.90
20370;DHT22;10344;47.592;9.600;2022-12-29T01:39:05;6.90;99.90
20370;DHT22;10344;47.592;9.600;2022-12-29T01:41:30;6.90;99.90
20370;DHT22;10344;47.592;9.600;2022-12-29T01:43:59;6.90;99.90
20370;DHT22;10344;47.592;9.600;2022-12-29T01:46:42;7.00;99.90
20370;DHT22;10344;47.592;9.600;2022-12-29T01:49:24;7.00;99.90
20370;DHT22;10344;47.592;9.600;2022-12-29T01:51:58;7.10;99.90
20370;DHT22;10344;47.592;9.600;2022-12-29T01:54:41;7.20;99.90
20370;DHT22;10344;47.592;9.600;2022-12-29T01:57:16;7.40;99.90
20370;DHT22;10344;47.592;9.600;2022-12-29T01:59:58;7.40;99.90
20370;DHT22;10344;47.592;9.600;2022-12-29T02:02:25;7.40;99.90
20370;DHT22;10344;47.592;9.600;2022-12-29T02:04:52;7.50;99.90
20370;DHT22;10344;47.592;9.600;2022-12-29T02:07:20;7.50;99.90
20370;DHT22;10344;47.592;9.600;2022-12-29T02:09:48;7.50;99.90
20370;DHT22;10344;47.592;9.600;2022-12-29T02:12:14;7.50;99.90
20370;DHT22;10344;47.592;9.600;2022-12-29T02:14:40;7.50;99.90
20370;DHT22;10344;47.592;9.600;2022-12-29T02:22:55;7.50;99.90
20370;DHT22;10344;47.592;9.600;2022-12-29T02:28:53;7.30;99.90
20370;DHT22;10344;47.592;9.600;2022-12-29T02:31:35;7.30;99.90
20370;DHT22;10344;47.592;9.600;2022-12-29T02:37:05;7.20;99.90
20370;DHT22;10344;47.592;9.600;2022-12-29T02:39:40;6.90;99.90
20370;DHT22;10344;47.592;9.600;2022-12-29T02:44:55;6.60;99.90
20370;DHT22;10344;47.592;9.600;2022-12-29T02:47:28;6.40;99.90
20370;DHT22;10344;47.592;9.600;2022-12-29T02:50:18;6.30;99.90
20370;DHT22;10344;47.592;9.600;2022-12-29T02:52:58;6.30;99.90
20370;DHT22;10344;47.592;9.600;2022-12-29T02:55:59;6.20;99.90
20370;DHT22;10344;47.592;9.600;2022-12-29T02:58:27;6.20;99.90
20370;DHT22;10344;47.592;9.600;2022-12-29T03:03:56;6.20;99.90
20370;DHT22;10344;47.592;9.600;2022-12-29T03:06:46;6.30;99.90
20370;DHT22;10344;47.592;9.600;2022-12-29T03:09:22;6.20;99.90
20370;DHT22;10344;47.592;9.600;2022-12-29T03:11:59;6.20;99.90
20370;DHT22;10344;47.592;9.600;2022-12-29T03:15:00;6.20;99.90
20370;DHT22;10344;47.592;9.600;2022-12-29T03:17:53;6.20;99.90
20370;DHT22;10344;47.592;9.600;2022-12-29T03:20:28;6.10;99.90
20370;DHT22;10344;47.592;9.600;2022-12-29T03:23:01;6.10;99.90
20370;DHT22;10344;47.592;9.600;2022-12-29T03:25:36;6.20;99.90
20370;DHT22;10344;47.592;9.600;2022-12-29T03:28:16;6.20;99.90
20370;DHT22;10344;47.592;9.600;2022-12-29T03:30:45;6.20;99.90
20370;DHT22;10344;47.592;9.600;2022-12-29T03:33:16;6.30;99.90
20370;DHT22;10344;47.592;9.600;2022-12-29T03:35:51;6.30;99.90
20370;DHT22;10344;47.592;9.600;2022-12-29T03:41:00;6.30;99.90
20370;DHT22;10344;47.592;9.600;2022-12-29T03:43:31;6.20;99.90
20370;DHT22;10344;47.592;9.600;2022-12-29T03:45:57;6.50;99.90
20370;DHT22;10344;47.592;9.600;2022-12-29T03:48:25;6.80;99.90
20370;DHT22;10344;47.592;9.600;2022-12-29T03:50:50;6.70;99.90
20370;DHT22;10344;47.592;9.600;2022-12-29T03:53:16;6.60;99.90
20370;DHT22;10344;47.592;9.600;2022-12-29T03:55:42;6.50;99.90
20370;DHT22;10344;47.592;9.600;2022-12-29T03:58:10;6.40;99.90
20370;DHT22;10344;47.592;9.600;2022-12-29T04:00:38;6.30;99.90
20370;DHT22;10344;47.592;9.600;2022-12-29T04:03:04;6.30;99.90
20370;DHT22;10344;47.592;9.600;2022-12-29T04:05:32;6.30;99.90
20370;DHT22;10344;47.592;9.600;2022-12-29T04:07:58;6.30;99.90
20370;DHT22;10344;47.592;9.600;2022-12-29T04:10:23;6.40;99.90
20370;DHT22;10344;47.592;9.600;2022-12-29T04:12:49;6.60;99.90
20370;DHT22;10344;47.592;9.600;2022-12-29T04:15:16;6.70;99.90
20370;DHT22;10344;47.592;9.600;2022-12-29T04:17:47;6.70;99.90
20370;DHT22;10344;47.592;9.600;2022-12-29T04:20:14;6.70;99.90
20370;DHT22;10344;47.592;9.600;2022-12-29T04:23:04;6.70;99.90
20370;DHT22;10344;47.592;9.600;2022-12-29T04:25:33;6.60;99.90
20370;DHT22;10344;47.592;9.600;2022-12-29T04:28:00;6.60;99.90
20370;DHT22;10344;47.592;9.600;2022-12-29T04:30:28;6.50;99.90
20370;DHT22;10344;47.592;9.600;2022-12-29T04:32:56;6.50;99.90
20370;DHT22;10344;47.592;9.600;2022-12-29T04:35:24;6.70;99.90
20370;DHT22;10344;47.592;9.600;2022-12-29T04:37:53;6.60;99.90
20370;DHT22;10344;47.592;9.600;2022-12-29T04:40:25;6.50;99.90
20370;DHT22;10344;47.592;9.600;2022-12-29T04:42:50;6.40;99.90
20370;DHT22;10344;47.592;9.600;2022-12-29T04:45:17;6.40;99.90
20370;DHT22;10344;47.592;9.600;2022-12-29T04:47:42;6.30;99.90
20370;DHT22;10344;47.592;9.600;2022-12-29T04:50:11;6.30;99.90
20370;DHT22;10344;47.592;9.600;2022-12-29T04:52:41;6.40;99.90
20370;DHT22;10344;47.592;9.600;2022-12-29T04:55:07;6.40;99.90
20370;DHT22;10344;47.592;9.600;2022-12-29T04:57:33;6.40;99.90
20370;DHT22;10344;47.592;9.600;2022-12-29T04:59:58;6.50;99.90
20370;DHT22;10344;47.592;9.600;2022-12-29T05:02:24;6.50;99.90
20370;DHT22;10344;47.592;9.600;2022-12-29T05:04:49;6.40;99.90
20370;DHT22;10344;47.592;9.600;2022-12-29T05:07:15;6.30;99.90
20370;DHT22;10344;47.592;9.600;2022-12-29T05:09:41;6.20;99.90
20370;DHT22;10344;47.592;9.600;2022-12-29T05:12:12;6.10;99.90
20370;DHT22;10344;47.592;9.600;2022-12-29T05:14:41;6.20;99.90
20370;DHT22;10344;47.592;9.600;2022-12-29T05:17:09;6.40;99.90
20370;DHT22;10344;47.592;9.600;2022-12-29T05:19:34;6.40;99.90
20370;DHT22;10344;47.592;9.600;2022-12-29T05:22:00;6.40;99.90
20370;DHT22;10344;47.592;9.600;2022-12-29T05:24:25;6.40;99.90
20370;DHT22;10344;47.592;9.600;2022-12-29T05:26:51;6.30;99.90
20370;DHT22;10344;47.592;9.600;2022-12-29T05:29:19;6.20;99.90
20370;DHT22;10344;47.592;9.600;2022-12-29T05:31:45;6.10;99.90
20370;DHT22;10344;47.592;9.600;2022-12-29T05:34:11;6.00;99.90
20370;DHT22;10344;47.592;9.600;2022-12-29T05:36:36;6.10;99.90
20370;DHT22;10344;47.592;9.600;2022-12-29T05:39:03;6.10;99.90
20370;DHT22;10344;47.592;9.600;2022-12-29T05:41:28;6.10;99.90
20370;DHT22;10344;47.592;9.600;2022-12-29T05:43:54;6.00;99.90
20370;DHT22;10344;47.592;9.600;2022-12-29T05:46:19;6.00;99.90
20370;DHT22;10344;47.592;9.600;2022-12-29T05:48:45;6.10;99.90
20370;DHT22;10344;47.592;9.600;2022-12-29T05:51:13;6.10;99.90
20370;DHT22;10344;47.592;9.600;2022-12-29T05:53:39;6.20;99.90
20370;DHT22;10344;47.592;9.600;2022-12-29T05:56:07;6.40;99.90
20370;DHT22;10344;47.592;9.600;2022-12-29T05:58:35;6.40;99.90
20370;DHT22;10344;47.592;9.600;2022-12-29T06:01:03;6.40;99.90
20370;DHT22;10344;47.592;9.600;2022-12-29T06:03:28;6.30;99.90
20370;DHT22;10344;47.592;9.600;2022-12-29T06:05:54;6.10;99.90
20370;DHT22;10344;47.592;9.600;2022-12-29T06:08:19;6.00;99.90
20370;DHT22;10344;47.592;9.600;2022-12-29T06:10:45;5.90;99.90
20370;DHT22;10344;47.592;9.600;2022-12-29T06:13:11;5.80;99.90
20370;DHT22;10344;47.592;9.600;2022-12-29T06:15:39;5.70;99.90
20370;DHT22;10344;47.592;9.600;2022-12-29T06:18:07;5.70;99.90
20370;DHT22;10344;47.592;9.600;2022-12-29T06:20:34;5.60;99.90
20370;DHT22;10344;47.592;9.600;2022-12-29T06:23:02;5.60;99.90
20370;DHT22;10344;47.592;9.600;2022-12-29T06:25:29;5.70;99.90
20370;DHT22;10344;47.592;9.600;2022-12-29T06:27:59;5.70;99.90
20370;DHT22;10344;47.592;9.600;2022-12-29T06:30:25;5.70;99.90
20370;DHT22;10344;47.592;9.600;2022-12-29T06:32:51;5.60;99.90
20370;DHT22;10344;47.592;9.600;2022-12-29T06:35:20;5.60;99.90
20370;DHT22;10344;47.592;9.600;2022-12-29T06:37:49;5.60;99.90
20370;DHT22;10344;47.592;9.600;2022-12-29T06:40:15;5.60;99.90
20370;DHT22;10344;47.592;9.600;2022-12-29T06:42:40;5.50;99.90
20370;DHT22;10344;47.592;9.600;2022-12-29T06:45:06;5.60;99.90
20370;DHT22;10344;47.592;9.600;2022-12-29T06:47:35;5.60;99.90
20370;DHT22;10344;47.592;9.600;2022-12-29T06:50:01;5.70;99.90
20370;DHT22;10344;47.592;9.600;2022-12-29T06:52:31;5.70;99.90
20370;DHT22;10344;47.592;9.600;2022-12-29T06:54:59;5.80;99.90
20370;DHT22;10344;47.592;9.600;2022-12-29T06:57:29;5.90;99.90
20370;DHT22;10344;47.592;9.600;2022-12-29T06:59:55;6.00;99.90
20370;DHT22;10344;47.592;9.600;2022-12-29T07:02:23;6.10;99.90
20370;DHT22;10344;47.592;9.600;2022-12-29T07:04:51;6.20;99.90
20370;DHT22;10344;47.592;9.600;2022-12-29T07:07:18;6.20;99.90
20370;DHT22;10344;47.592;9.600;2022-12-29T07:09:44;6.30;99.90
20370;DHT22;10344;47.592;9.600;2022-12-29T07:12:12;6.30;99.90
20370;DHT22;10344;47.592;9.600;2022-12-29T07:14:38;6.30;99.90
20370;DHT22;10344;47.592;9.600;2022-12-29T07:17:04;6.40;99.90
20370;DHT22;10344;47.592;9.600;2022-12-29T07:19:32;6.50;99.90
20370;DHT22;10344;47.592;9.600;2022-12-29T07:21:58;6.60;99.90
20370;DHT22;10344;47.592;9.600;2022-12-29T07:24:24;6.70;99.90
20370;DHT22;10344;47.592;9.600;2022-12-29T07:26:51;6.70;99.90
20370;DHT22;10344;47.592;9.600;2022-12-29T07:29:17;6.80;99.90
20370;DHT22;10344;47.592;9.600;2022-12-29T07:31:43;6.80;99.90
20370;DHT22;10344;47.592;9.600;2022-12-29T07:34:09;6.80;99.90
20370;DHT22;10344;47.592;9.600;2022-12-29T07:36:34;6.90;99.90
20370;DHT22;10344;47.592;9.600;2022-12-29T07:39:02;7.00;99.90
20370;DHT22;10344;47.592;9.600;2022-12-29T07:41:37;7.10;99.90
20370;DHT22;10344;47.592;9.600;2022-12-29T07:44:03;7.10;99.90
20370;DHT22;10344;47.592;9.600;2022-12-29T07:46:29;7.20;99.90
20370;DHT22;10344;47.592;9.600;2022-12-29T07:48:54;7.30;99.90
20370;DHT22;10344;47.592;9.600;2022-12-29T07:51:20;7.30;99.90
20370;DHT22;10344;47.592;9.600;2022-12-29T07:53:45;7.30;99.90
20370;DHT22;10344;47.592;9.600;2022-12-29T07:56:11;7.40;99.90
20370;DHT22;10344;47.592;9.600;2022-12-29T07:58:39;7.40;99.90
20370;DHT22;10344;47.592;9.600;2022-12-29T08:01:06;7.40;99.90
20370;DHT22;10344;47.592;9.600;2022-12-29T08:03:34;7.30;99.90
20370;DHT22;10344;47.592;9.600;2022-12-29T08:06:03;7.40;99.90
20370;DHT22;10344;47.592;9.600;2022-12-29T08:08:29;7.40;99.90
20370;DHT22;10344;47.592;9.600;2022-12-29T08:10:57;7.30;99.90
20370;DHT22;10344;47.592;9.600;2022-12-29T08:13:22;7.40;99.90
20370;DHT22;10344;47.592;9.600;2022-12-29T08:15:48;7.50;99.90
20370;DHT22;10344;47.592;9.600;2022-12-29T08:18:14;7.80;99.90
20370;DHT22;10344;47.592;9.600;2022-12-29T08:20:39;8.00;99.90
20370;DHT22;10344;47.592;9.600;2022-12-29T08:23:12;8.10;99.90
20370;DHT22;10344;47.592;9.600;2022-12-29T08:25:40;8.10;99.90
20370;DHT22;10344;47.592;9.600;2022-12-29T08:28:06;8.20;99.90
20370;DHT22;10344;47.592;9.600;2022-12-29T08:30:31;8.10;99.90
20370;DHT22;10344;47.592;9.600;2022-12-29T08:32:57;8.10;99.90
20370;DHT22;10344;47.592;9.600;2022-12-29T08:35:22;8.20;99.90
20370;DHT22;10344;47.592;9.600;2022-12-29T08:37:50;8.20;99.90
20370;DHT22;10344;47.592;9.600;2022-12-29T08:40:16;8.20;99.90
20370;DHT22;10344;47.592;9.600;2022-12-29T08:42:44;8.20;99.90
20370;DHT22;10344;47.592;9.600;2022-12-29T08:45:13;8.20;99.90
20370;DHT22;10344;47.592;9.600;2022-12-29T08:47:39;8.20;99.90
20370;DHT22;10344;47.592;9.600;2022-12-29T08:50:05;8.10;99.90
20370;DHT22;10344;47.592;9.600;2022-12-29T08:52:31;8.20;99.90
20370;DHT22;10344;47.592;9.600;2022-12-29T08:55:00;8.30;99.90
20370;DHT22;10344;47.592;9.600;2022-12-29T08:57:31;8.50;99.90
20370;DHT22;10344;47.592;9.600;2022-12-29T08:59:57;8.70;99.90
20370;DHT22;10344;47.592;9.600;2022-12-29T09:02:23;8.80;99.90
20370;DHT22;10344;47.592;9.600;2022-12-29T09:04:49;8.90;99.90
20370;DHT22;10344;47.592;9.600;2022-12-29T09:07:17;8.90;99.90
20370;DHT22;10344;47.592;9.600;2022-12-29T09:09:44;8.90;99.90
20370;DHT22;10344;47.592;9.600;2022-12-29T09:12:12;8.80;99.90
20370;DHT22;10344;47.592;9.600;2022-12-29T09:14:38;8.70;99.90
20370;DHT22;10344;47.592;9.600;2022-12-29T09:17:11;8.80;99.90
20370;DHT22;10344;47.592;9.600;2022-12-29T09:19:55;8.80;99.90
20370;DHT22;10344;47.592;9.600;2022-12-29T09:22:59;8.80;99.90
20370;DHT22;10344;47.592;9.600;2022-12-29T09:25:31;8.80;99.90
20370;DHT22;10344;47.592;9.600;2022-12-29T09:27:58;8.80;99.90
20370;DHT22;10344;47.592;9.600;2022-12-29T09:30:30;8.80;99.90
20370;DHT22;10344;47.592;9.600;2022-12-29T09:33:01;8.90;99.90
20370;DHT22;10344;47.592;9.600;2022-12-29T09:35:56;8.90;99.90
20370;DHT22;10344;47.592;9.600;2022-12-29T09:38:58;9.10;99.90
20370;DHT22;10344;47.592;9.600;2022-12-29T09:45:20;9.30;99.90
20370;DHT22;10344;47.592;9.600;2022-12-29T09:47:50;9.40;99.90
20370;DHT22;10344;47.592;9.600;2022-12-29T09:50:37;9.60;99.90
20370;DHT22;10344;47.592;9.600;2022-12-29T09:53:28;9.90;99.90
20370;DHT22;10344;47.592;9.600;2022-12-29T09:56:21;10.00;99.90
20370;DHT22;10344;47.592;9.600;2022-12-29T09:59:00;10.00;99.90
20370;DHT22;10344;47.592;9.600;2022-12-29T10:01:36;10.20;99.90
20370;DHT22;10344;47.592;9.600;2022-12-29T10:04:33;10.50;99.90
20370;DHT22;10344;47.592;9.600;2022-12-29T10:07:28;11.20;99.90
20370;DHT22;10344;47.592;9.600;2022-12-29T10:10:19;11.80;99.90
20370;DHT22;10344;47.592;9.600;2022-12-29T10:16:24;13.00;99.90
20370;DHT22;10344;47.592;9.600;2022-12-29T10:22:30;14.30;99.90
20370;DHT22;10344;47.592;9.600;2022-12-29T10:25:17;15.10;99.90
20370;DHT22;10344;47.592;9.600;2022-12-29T10:27:51;15.50;99.90
20370;DHT22;10344;47.592;9.600;2022-12-29T10:30:21;16.00;99.90
20370;DHT22;10344;47.592;9.600;2022-12-29T10:33:06;16.30;99.90
20370;DHT22;10344;47.592;9.600;2022-12-29T10:35:37;16.20;99.90
20370;DHT22;10344;47.592;9.600;2022-12-29T10:38:35;16.20;99.90
20370;DHT22;10344;47.592;9.600;2022-12-29T10:41:22;16.30;99.90
20370;DHT22;10344;47.592;9.600;2022-12-29T10:44:14;16.30;99.90
20370;DHT22;10344;47.592;9.600;2022-12-29T10:47:04;16.30;99.90
20370;DHT22;10344;47.592;9.600;2022-12-29T10:49:40;16.20;99.90
20370;DHT22;10344;47.592;9.600;2022-12-29T10:52:30;16.10;99.90
20370;DHT22;10344;47.592;9.600;2022-12-29T10:55:12;16.20;99.90
20370;DHT22;10344;47.592;9.600;2022-12-29T10:58:12;15.70;99.90
20370;DHT22;10344;47.592;9.600;2022-12-29T11:00:40;15.30;99.90
20370;DHT22;10344;47.592;9.600;2022-12-29T11:06:14;15.00;99.90
20370;DHT22;10344;47.592;9.600;2022-12-29T11:12:29;15.00;99.90
20370;DHT22;10344;47.592;9.600;2022-12-29T11:15:11;14.70;99.90
20370;DHT22;10344;47.592;9.600;2022-12-29T11:17:53;14.40;99.90
20370;DHT22;10344;47.592;9.600;2022-12-29T11:22:58;14.00;99.90
20370;DHT22;10344;47.592;9.600;2022-12-29T11:25:28;13.90;99.90
20370;DHT22;10344;47.592;9.600;2022-12-29T11:28:14;13.70;99.90
20370;DHT22;10344;47.592;9.600;2022-12-29T11:31:03;13.80;99.90
20370;DHT22;10344;47.592;9.600;2022-12-29T11:33:45;13.80;99.90
20370;DHT22;10344;47.592;9.600;2022-12-29T11:36:26;13.80;99.90
20370;DHT22;10344;47.592;9.600;2022-12-29T11:38:57;13.60;99.90
20370;DHT22;10344;47.592;9.600;2022-12-29T11:41:29;13.50;99.90
20370;DHT22;10344;47.592;9.600;2022-12-29T11:44:01;13.60;99.90
20370;DHT22;10344;47.592;9.600;2022-12-29T11:46:40;13.60;99.90
20370;DHT22;10344;47.592;9.600;2022-12-29T11:49:27;13.60;99.90
20370;DHT22;10344;47.592;9.600;2022-12-29T11:57:19;13.40;99.90
20370;DHT22;10344;47.592;9.600;2022-12-29T11:59:59;13.40;99.90
20370;DHT22;10344;47.592;9.600;2022-12-29T12:02:45;13.50;99.90
20370;DHT22;10344;47.592;9.600;2022-12-29T12:05:19;13.50;99.90
20370;DHT22;10344;47.592;9.600;2022-12-29T13:58:49;11.80;99.90
20370;DHT22;10344;47.592;9.600;2022-12-29T14:04:13;11.70;99.90
20370;DHT22;10344;47.592;9.600;2022-12-29T14:53:56;10.60;99.90
20370;DHT22;10344;47.592;9.600;2022-12-29T19:33:09;9.00;99.90
20370;DHT22;10344;47.592;9.600;2022-12-29T19:35:41;9.00;99.90
20370;DHT22;10344;47.592;9.600;2022-12-29T19:38:52;8.90;99.90
20370;DHT22;10344;47.592;9.600;2022-12-29T19:41:43;8.90;99.90
20370;DHT22;10344;47.592;9.600;2022-12-29T19:45:18;8.80;99.90
20370;DHT22;10344;47.592;9.600;2022-12-29T23:19:16;8.90;99.90
20370;DHT22;10344;47.592;9.600;2022-12-29T23:22:31;8.90;99.90
20370;DHT22;10344;47.592;9.600;2022-12-29T23:25:28;8.90;99.90
20370;DHT22;10344;47.592;9.600;2022-12-29T23:28:43;8.80;99.90
20370;DHT22;10344;47.592;9.600;2022-12-29T23:31:50;8.70;99.90
20370;DHT22;10344;47.592;9.600;2022-12-29T23:34:36;8.70;99.90
20370;DHT22;10344;47.592;9.600;2022-12-29T23:37:33;8.60;99.90
20370;DHT22;10344;47.592;9.600;2022-12-29T23:40:00;8.60;99.90
20370;DHT22;10344;47.592;9.600;2022-12-29T23:42:36;8.50;99.90
20370;DHT22;10344;47.592;9.600;2022-12-29T23:45:06;8.60;99.90
20370;DHT22;10344;47.592;9.600;2022-12-29T23:47:34;8.50;99.90
20370;DHT22;10344;47.592;9.600;2022-12-29T23:50:13;8.50;99.90
20370;DHT22;10344;47.592;9.600;2022-12-29T23:53:00;8.50;99.90
20370;DHT22;10344;47.592;9.600;2022-12-29T23:55:28;8.60;99.90
20370;DHT22;10344;47.592;9.600;2022-12-29T23:58:04;8.60;99.90
